Time;durP1;ratioP1;P1;durP2;ratioP2;P2;SDS_P1;SDS_P2;PMS_P1;PMS_P2;Temp;Humidity;BMP_temperature;BMP_pressure;BME280_temperature;BME280_humidity;BME280_pressure;Samples;Min_cycle;Max_cycle;Signal;HPM_P1;HPM_P2
2022/01/28 00:02:32;;;;;;;11.63;10.40;;;3.50;99.90;;;;;;5046901;28;20198;-75
2022/01/28 00:05:01;;;;;;;11.70;10.50;;;3.40;99.90;;;;;;5038834;28;20195;-74
2022/01/28 00:07:28;;;;;;;11.27;10.18;;;3.40;99.90;;;;;;5039742;28;20690;-75
2022/01/28 00:09:55;;;;;;;11.75;10.55;;;3.40;99.90;;;;;;5048791;28;20202;-74
2022/01/28 00:12:24;;;;;;;11.68;10.45;;;3.40;99.90;;;;;;5042883;28;20478;-74
2022/01/28 00:14:55;;;;;;;11.18;10.07;;;3.40;99.90;;;;;;5044988;28;20253;-75
2022/01/28 00:17:51;;;;;;;13.00;9.50;;;3.40;99.90;;;;;;5037928;28;20283;-74
2022/01/28 00:37:05;;;;;;;11.50;10.40;;;3.70;99.90;;;;;;5041604;28;20196;-73
2022/01/28 00:39:32;;;;;;;11.18;10.07;;;3.70;99.90;;;;;;5041348;28;20230;-74
2022/01/28 00:41:59;;;;;;;11.65;10.45;;;3.70;99.90;;;;;;5054652;28;20223;-74
2022/01/28 00:44:26;;;;;;;10.18;9.18;;;3.80;99.90;;;;;;5040682;28;20694;-73
2022/01/28 00:46:53;;;;;;;11.57;9.50;;;3.80;99.90;;;;;;5045397;28;20195;-74
2022/01/28 00:49:20;;;;;;;11.18;10.05;;;3.80;99.90;;;;;;5054913;28;20673;-74
2022/01/28 00:51:47;;;;;;;11.27;10.07;;;3.80;99.90;;;;;;5037233;28;20655;-74
2022/01/28 00:54:17;;;;;;;10.07;9.07;;;3.80;99.90;;;;;;5027892;28;20576;-73
2022/01/28 00:56:44;;;;;;;10.52;9.40;;;3.80;99.90;;;;;;5034880;28;20643;-74
2022/01/28 00:59:11;;;;;;;11.18;8.65;;;3.70;99.90;;;;;;5033579;28;20223;-74
2022/01/28 01:01:38;;;;;;;9.82;8.82;;;3.70;99.90;;;;;;5047728;28;20198;-74
2022/01/28 01:04:06;;;;;;;10.88;9.80;;;3.70;99.90;;;;;;5044566;28;20239;-74
2022/01/28 01:06:34;;;;;;;9.98;9.00;;;3.70;99.90;;;;;;5038859;28;20192;-74
2022/01/28 01:09:01;;;;;;;10.18;9.18;;;3.70;99.90;;;;;;5033165;28;20205;-73
2022/01/28 01:11:30;;;;;;;10.55;9.45;;;3.70;99.90;;;;;;5034122;28;20203;-74
2022/01/28 01:13:58;;;;;;;10.40;9.40;;;3.70;99.90;;;;;;5048885;28;20314;-74
2022/01/28 01:16:30;;;;;;;12.48;9.80;;;3.60;99.90;;;;;;5046461;28;20197;-74
2022/01/28 01:19:13;;;;;;;10.73;9.65;;;3.60;99.90;;;;;;5046800;28;20241;-74
2022/01/28 01:21:42;;;;;;;11.07;9.90;;;3.50;99.90;;;;;;5035227;28;20210;-74
2022/01/28 01:24:20;;;;;;;10.90;9.80;;;3.40;99.90;;;;;;5038802;28;20209;-74
2022/01/28 01:26:48;;;;;;;11.57;10.45;;;3.40;99.90;;;;;;5037964;28;20191;-74
2022/01/28 01:29:18;;;;;;;11.25;10.15;;;3.30;99.90;;;;;;5057280;28;20210;-74
2022/01/28 01:31:46;;;;;;;12.65;10.00;;;3.30;99.90;;;;;;5032277;28;20310;-74
2022/01/28 01:34:16;;;;;;;13.20;10.77;;;3.30;99.90;;;;;;5043256;28;20560;-74
2022/01/28 01:36:43;;;;;;;12.65;10.75;;;3.20;99.90;;;;;;5050275;28;20197;-74
2022/01/28 01:39:11;;;;;;;11.77;10.50;;;3.20;99.90;;;;;;5039223;28;20314;-74
2022/01/28 01:41:43;;;;;;;12.07;10.82;;;3.20;99.90;;;;;;5042815;28;20571;-74
2022/01/28 01:44:21;;;;;;;12.43;11.07;;;3.20;99.90;;;;;;5041144;28;20285;-72
2022/01/28 01:47:12;;;;;;;12.65;11.35;;;3.10;99.90;;;;;;5045403;28;20576;-72
2022/01/28 01:52:20;;;;;;;13.52;12.05;;;3.00;99.90;;;;;;5038488;28;20662;-74
2022/01/28 01:54:50;;;;;;;14.07;11.30;;;3.00;99.90;;;;;;5031879;28;20211;-73
2022/01/28 01:57:18;;;;;;;14.70;12.07;;;3.00;99.90;;;;;;5038429;28;20530;-73
2022/01/28 01:59:48;;;;;;;12.45;11.15;;;2.90;99.90;;;;;;5040230;28;20225;-73
2022/01/28 02:02:15;;;;;;;11.25;10.10;;;2.90;99.90;;;;;;5045467;28;20197;-73
2022/01/28 02:04:42;;;;;;;12.40;10.80;;;2.90;99.90;;;;;;5040476;28;20285;-73
2022/01/28 02:07:09;;;;;;;11.77;9.88;;;2.90;99.90;;;;;;5050059;28;20191;-73
2022/01/28 02:09:36;;;;;;;12.80;10.73;;;2.80;99.90;;;;;;5043813;28;20199;-73
2022/01/28 02:12:03;;;;;;;13.50;11.80;;;2.80;99.90;;;;;;5043496;28;20289;-74
2022/01/28 02:14:30;;;;;;;13.57;10.40;;;2.80;99.90;;;;;;5035481;28;20222;-73
2022/01/28 02:16:59;;;;;;;11.77;10.25;;;2.80;99.90;;;;;;5050850;28;20243;-73
2022/01/28 02:19:27;;;;;;;14.55;10.45;;;2.80;99.90;;;;;;5048609;28;20224;-74
2022/01/28 02:21:55;;;;;;;12.68;11.38;;;2.80;99.90;;;;;;5044167;28;20309;-74
2022/01/28 02:24:27;;;;;;;11.80;10.60;;;2.80;99.90;;;;;;5033560;28;20275;-74
2022/01/28 02:26:55;;;;;;;11.85;10.65;;;2.80;99.90;;;;;;5036169;28;20204;-74
2022/01/28 02:29:28;;;;;;;11.55;10.35;;;2.70;99.90;;;;;;5038264;28;20813;-74
2022/01/28 02:31:56;;;;;;;11.88;10.63;;;2.70;99.90;;;;;;5044050;28;20246;-74
2022/01/28 02:34:23;;;;;;;13.25;11.30;;;2.70;99.90;;;;;;5039172;28;20220;-74
2022/01/28 02:36:50;;;;;;;12.27;9.93;;;2.70;99.90;;;;;;5035874;28;20225;-74
2022/01/28 02:39:19;;;;;;;11.52;9.93;;;2.80;99.90;;;;;;5030563;28;20535;-74
2022/01/28 02:41:49;;;;;;;11.65;10.32;;;2.80;99.90;;;;;;5031880;28;20287;-74
2022/01/28 02:44:21;;;;;;;11.70;10.50;;;2.80;99.90;;;;;;5054176;28;20220;-74
2022/01/28 02:46:58;;;;;;;12.20;10.90;;;2.80;99.90;;;;;;5045872;28;20616;-74
2022/01/28 02:49:28;;;;;;;11.57;9.68;;;2.80;99.90;;;;;;5037450;28;20263;-74
2022/01/28 02:51:57;;;;;;;12.48;10.32;;;2.90;99.90;;;;;;5030799;28;20654;-74
2022/01/28 02:54:25;;;;;;;12.45;11.02;;;2.90;99.90;;;;;;5051755;28;20586;-74
2022/01/28 02:56:57;;;;;;;11.20;10.00;;;3.00;99.90;;;;;;5037204;28;20317;-74
2022/01/28 02:59:25;;;;;;;12.60;10.98;;;3.00;99.90;;;;;;5048664;28;20282;-75
2022/01/28 03:01:52;;;;;;;15.00;13.35;;;3.10;99.90;;;;;;5053235;28;20560;-74
2022/01/28 03:04:45;;;;;;;10.98;9.75;;;3.00;99.90;;;;;;5040393;28;20217;-74
2022/01/28 03:07:08;;;;;;;11.05;9.85;;;3.10;99.90;;;;;;5043309;28;20195;-74
2022/01/28 03:09:49;;;;;;;11.90;10.70;;;3.10;99.90;;;;;;5031775;28;20205;-74
2022/01/28 03:12:20;;;;;;;12.40;11.20;;;3.10;99.90;;;;;;5048254;28;20546;-74
2022/01/28 03:15:00;;;;;;;11.30;10.20;;;3.10;99.90;;;;;;5039686;28;20200;-74
2022/01/28 03:17:51;;;;;;;13.18;10.77;;;3.10;99.90;;;;;;5038537;28;20194;-74
2022/01/28 03:20:35;;;;;;;12.00;10.50;;;3.10;99.90;;;;;;5038404;28;20238;-74
2022/01/28 03:23:02;;;;;;;10.15;9.07;;;3.00;99.90;;;;;;5037330;28;20220;-74
2022/01/28 03:25:30;;;;;;;11.38;9.60;;;3.10;99.90;;;;;;5034246;28;20267;-74
2022/01/28 03:27:59;;;;;;;13.73;10.23;;;3.10;99.90;;;;;;5034420;28;20256;-74
2022/01/28 03:30:26;;;;;;;12.32;10.75;;;3.10;99.90;;;;;;5044410;28;20204;-74
2022/01/28 03:32:53;;;;;;;13.25;9.52;;;3.10;99.90;;;;;;5053339;28;20229;-74
2022/01/28 03:35:21;;;;;;;11.90;10.55;;;3.20;99.90;;;;;;5035821;28;20203;-74
2022/01/28 03:37:49;;;;;;;12.30;10.80;;;3.20;99.90;;;;;;5033862;28;20202;-74
2022/01/28 03:40:19;;;;;;;12.38;10.07;;;3.30;99.90;;;;;;5033765;28;20702;-74
2022/01/28 03:42:48;;;;;;;11.05;9.70;;;3.30;99.90;;;;;;5038037;28;20219;-74
2022/01/28 03:45:16;;;;;;;13.00;10.25;;;3.30;99.90;;;;;;5052330;28;20193;-74
2022/01/28 03:47:43;;;;;;;11.27;9.77;;;3.30;99.90;;;;;;5042091;28;20203;-74
2022/01/28 03:50:10;;;;;;;11.60;10.40;;;3.40;99.90;;;;;;5037082;28;20301;-74
2022/01/28 03:52:37;;;;;;;11.25;8.95;;;3.40;99.90;;;;;;5034646;28;20706;-74
2022/01/28 03:55:05;;;;;;;10.68;9.60;;;3.40;99.90;;;;;;5033319;28;20204;-74
2022/01/28 03:57:32;;;;;;;11.80;9.98;;;3.50;99.90;;;;;;5042186;28;20202;-73
2022/01/28 04:00:00;;;;;;;11.60;9.52;;;3.50;99.90;;;;;;5042952;28;20536;-74
2022/01/28 04:02:31;;;;;;;11.35;9.27;;;3.50;99.90;;;;;;5052717;28;20755;-74
2022/01/28 04:13:11;;;;;;;12.05;10.77;;;3.50;99.90;;;;;;5035254;28;20225;-74
2022/01/28 04:15:51;;;;;;;11.45;10.30;;;3.50;99.90;;;;;;5045763;28;20296;-74
2022/01/28 04:18:18;;;;;;;10.40;8.90;;;3.40;99.90;;;;;;5045401;28;20282;-74
2022/01/28 04:20:45;;;;;;;11.13;9.57;;;3.40;99.90;;;;;;5042442;28;20240;-73
2022/01/28 04:23:12;;;;;;;12.13;10.73;;;3.30;99.90;;;;;;5049802;28;20703;-74
2022/01/28 04:25:39;;;;;;;12.43;10.45;;;3.30;99.90;;;;;;5041882;28;20193;-72
2022/01/28 04:28:06;;;;;;;12.45;10.45;;;3.30;99.90;;;;;;5039968;28;20229;-72
2022/01/28 04:30:32;;;;;;;13.65;11.10;;;3.30;99.90;;;;;;5037453;28;20197;-72
2022/01/28 04:33:01;;;;;;;11.63;10.40;;;3.30;99.90;;;;;;5040434;28;20266;-72
2022/01/28 04:35:28;;;;;;;11.48;10.18;;;3.20;99.90;;;;;;5032949;28;20575;-72
2022/01/28 04:38:06;;;;;;;12.10;10.80;;;3.20;99.90;;;;;;5046348;28;20567;-72
2022/01/28 04:40:39;;;;;;;11.65;10.45;;;3.20;99.90;;;;;;5050868;28;20252;-72
2022/01/28 04:43:14;;;;;;;11.65;10.07;;;3.10;99.90;;;;;;5037249;28;20719;-72
2022/01/28 04:45:48;;;;;;;13.77;11.48;;;3.10;99.90;;;;;;5035739;28;20205;-72
2022/01/28 04:48:25;;;;;;;14.63;10.68;;;3.10;99.90;;;;;;5040488;28;20195;-72
2022/01/28 04:51:07;;;;;;;15.05;12.80;;;3.00;99.90;;;;;;5041303;28;20394;-72
2022/01/28 04:53:48;;;;;;;13.85;12.13;;;3.00;99.90;;;;;;5039538;28;20213;-72
2022/01/28 04:56:29;;;;;;;17.45;12.60;;;3.00;99.90;;;;;;5040303;28;20201;-72
2022/01/28 04:59:16;;;;;;;16.15;13.38;;;2.90;99.90;;;;;;5038746;28;20737;-72
2022/01/28 05:02:09;;;;;;;15.57;13.57;;;2.80;99.90;;;;;;5039488;28;20238;-72
2022/01/28 05:04:51;;;;;;;15.20;12.57;;;2.80;99.90;;;;;;5041314;28;20194;-72
2022/01/28 05:07:41;;;;;;;15.50;12.57;;;2.80;99.90;;;;;;5046855;28;20197;-72
2022/01/28 05:13:35;;;;;;;15.35;13.02;;;2.70;99.90;;;;;;4995481;28;20214;-73
2022/01/28 05:27:01;;;;;;;16.75;13.20;;;2.70;99.90;;;;;;5035182;28;20207;-72
2022/01/28 05:29:28;;;;;;;18.33;13.95;;;2.60;99.90;;;;;;5050608;28;20202;-72
2022/01/28 05:31:54;;;;;;;16.15;14.32;;;2.60;99.90;;;;;;5043784;28;20208;-71
2022/01/28 05:34:24;;;;;;;19.50;14.23;;;2.60;99.90;;;;;;5040297;28;20280;-72
2022/01/28 05:36:53;;;;;;;19.08;14.25;;;2.60;99.90;;;;;;5041955;28;20194;-72
2022/01/28 05:39:20;;;;;;;17.98;14.45;;;2.60;99.90;;;;;;5032257;28;20540;-72
2022/01/28 05:41:47;;;;;;;21.10;14.43;;;2.60;99.90;;;;;;5044250;28;20230;-72
2022/01/28 05:44:14;;;;;;;20.10;14.98;;;2.60;99.90;;;;;;5030806;28;20227;-72
2022/01/28 05:46:41;;;;;;;17.73;13.88;;;2.60;99.90;;;;;;5044550;28;20202;-72
2022/01/28 05:49:09;;;;;;;20.23;13.75;;;2.60;99.90;;;;;;5044268;28;20611;-72
2022/01/28 05:51:36;;;;;;;19.98;14.65;;;2.60;99.90;;;;;;5031474;28;20276;-72
2022/01/28 05:54:04;;;;;;;18.00;13.60;;;2.60;99.90;;;;;;5045508;28;20302;-73
2022/01/28 05:56:32;;;;;;;16.63;13.80;;;2.60;99.90;;;;;;5039408;28;20281;-73
2022/01/28 05:58:59;;;;;;;19.08;14.00;;;2.60;99.90;;;;;;5038325;28;20218;-73
2022/01/28 06:01:26;;;;;;;20.20;13.82;;;2.60;99.90;;;;;;5030979;28;20708;-73
2022/01/28 06:03:53;;;;;;;18.08;13.77;;;2.60;99.90;;;;;;5032858;28;20228;-72
2022/01/28 06:06:23;;;;;;;17.55;13.50;;;2.60;99.90;;;;;;5042806;28;20288;-72
2022/01/28 06:08:51;;;;;;;19.15;14.18;;;2.60;99.90;;;;;;5038977;28;20208;-72
2022/01/28 06:11:20;;;;;;;14.27;12.10;;;2.60;99.90;;;;;;5038191;28;20200;-76
2022/01/28 06:13:47;;;;;;;18.40;12.77;;;2.70;99.90;;;;;;5035329;28;20213;-81
2022/01/28 06:16:16;;;;;;;14.10;12.10;;;2.80;99.90;;;;;;5035248;28;21710;-77
2022/01/28 06:18:44;;;;;;;13.95;11.95;;;2.90;99.90;;;;;;5051149;28;20195;-82
2022/01/28 06:21:12;;;;;;;15.27;12.32;;;2.80;99.90;;;;;;5043292;28;20221;-81
2022/01/28 06:23:39;;;;;;;14.30;12.18;;;2.80;99.90;;;;;;5033276;28;20314;-81
2022/01/28 06:26:06;;;;;;;15.57;13.00;;;2.80;99.90;;;;;;5041488;28;20240;-81
2022/01/28 06:28:35;;;;;;;17.95;13.50;;;2.70;99.90;;;;;;5046998;28;20283;-81
2022/01/28 06:31:02;;;;;;;19.98;13.48;;;2.70;99.90;;;;;;5047146;28;20220;-83
2022/01/28 06:33:29;;;;;;;20.38;15.15;;;2.70;99.90;;;;;;5047896;28;20259;-83
2022/01/28 06:35:56;;;;;;;18.50;14.70;;;2.70;99.90;;;;;;5035968;28;20228;-83
2022/01/28 06:38:25;;;;;;;18.42;13.85;;;2.70;99.90;;;;;;5040187;28;20208;-83
2022/01/28 06:40:52;;;;;;;18.27;13.48;;;2.70;99.90;;;;;;5034041;28;20220;-83
2022/01/28 06:43:19;;;;;;;20.08;14.55;;;2.70;99.90;;;;;;5042562;28;20316;-84
2022/01/28 06:45:48;;;;;;;22.05;16.17;;;2.60;99.90;;;;;;5041090;28;20625;-83
2022/01/28 06:48:16;;;;;;;20.25;15.02;;;2.60;99.90;;;;;;5052269;28;20216;-89
2022/01/28 06:50:45;;;;;;;18.88;14.15;;;2.60;99.90;;;;;;5060433;28;20206;-85
2022/01/28 06:53:12;;;;;;;20.25;15.07;;;2.60;99.90;;;;;;5058232;28;20775;-84
2022/01/28 06:55:40;;;;;;;21.15;15.15;;;2.70;99.90;;;;;;5046821;28;20204;-85
2022/01/28 06:58:08;;;;;;;19.10;14.65;;;2.70;99.90;;;;;;5036865;28;20259;-85
2022/01/28 07:00:37;;;;;;;18.58;14.90;;;2.60;99.90;;;;;;5039531;28;20318;-89
2022/01/28 07:03:06;;;;;;;20.63;15.70;;;2.70;99.90;;;;;;5039097;28;20220;-82
2022/01/28 07:05:34;;;;;;;18.48;15.02;;;2.70;99.90;;;;;;5041706;28;20208;-85
2022/01/28 07:08:02;;;;;;;18.33;14.70;;;2.70;99.90;;;;;;5038423;28;20325;-85
2022/01/28 07:10:30;;;;;;;19.58;14.00;;;2.80;99.90;;;;;;5041123;28;20209;-83
2022/01/28 07:12:57;;;;;;;17.52;14.48;;;2.80;99.90;;;;;;5034118;28;20310;-84
2022/01/28 07:15:25;;;;;;;17.10;13.73;;;2.80;99.90;;;;;;5033686;28;20267;-84
2022/01/28 07:17:52;;;;;;;16.75;14.02;;;2.80;99.90;;;;;;5034808;28;20284;-84
2022/01/28 07:20:21;;;;;;;14.52;12.75;;;2.80;99.90;;;;;;5039154;28;20249;-85
2022/01/28 07:22:49;;;;;;;16.30;12.75;;;2.80;99.90;;;;;;5042537;28;20214;-86
2022/01/28 07:25:16;;;;;;;17.42;13.50;;;2.80;99.90;;;;;;5048332;28;20195;-86
2022/01/28 07:27:43;;;;;;;16.00;11.85;;;2.80;99.90;;;;;;5047249;28;20199;-85
2022/01/28 07:30:13;;;;;;;17.17;12.07;;;2.90;99.90;;;;;;5041782;28;20281;-85
2022/01/28 07:32:42;;;;;;;14.82;12.75;;;2.90;99.90;;;;;;5045425;28;20336;-85
2022/01/28 07:35:10;;;;;;;13.57;11.65;;;3.00;99.90;;;;;;5054141;28;20234;-83
2022/01/28 07:37:38;;;;;;;18.27;13.00;;;3.10;99.90;;;;;;5054950;28;20263;-86
2022/01/28 07:40:07;;;;;;;17.58;13.52;;;3.10;99.90;;;;;;5057386;28;20706;-87
2022/01/28 07:42:43;;;;;;;14.02;11.70;;;3.20;99.90;;;;;;5055213;28;20585;-85
2022/01/28 07:45:13;;;;;;;15.38;11.60;;;3.30;99.90;;;;;;5042321;28;20200;-85
2022/01/28 07:47:41;;;;;;;14.98;12.98;;;3.40;99.90;;;;;;5050150;28;20203;-85
2022/01/28 07:50:09;;;;;;;18.20;12.15;;;3.40;99.90;;;;;;5066679;28;20213;-85
2022/01/28 07:52:39;;;;;;;13.95;11.32;;;3.40;99.90;;;;;;5058802;28;20212;-87
2022/01/28 07:55:09;;;;;;;15.15;11.43;;;3.50;99.90;;;;;;5058235;28;20199;-84
2022/01/28 07:57:36;;;;;;;14.07;12.00;;;3.60;99.90;;;;;;5057361;28;20291;-84
2022/01/28 08:00:04;;;;;;;14.98;11.80;;;3.60;99.90;;;;;;5041131;28;20622;-85
2022/01/28 08:02:31;;;;;;;12.77;10.57;;;3.70;99.90;;;;;;5048082;28;20222;-86
2022/01/28 08:04:58;;;;;;;13.85;11.70;;;3.70;99.90;;;;;;5050791;28;20325;-86
2022/01/28 08:07:25;;;;;;;11.90;10.40;;;3.80;99.90;;;;;;5048384;28;20294;-85
2022/01/28 08:09:54;;;;;;;12.80;10.85;;;3.90;99.90;;;;;;5036860;28;20199;-82
2022/01/28 08:12:21;;;;;;;12.00;9.73;;;3.90;99.90;;;;;;5052876;28;20224;-82
2022/01/28 08:14:48;;;;;;;11.80;10.13;;;3.90;99.90;;;;;;5048927;28;20196;-82
2022/01/28 08:17:15;;;;;;;12.55;9.70;;;4.00;99.90;;;;;;5061913;28;20214;-83
2022/01/28 08:19:42;;;;;;;11.05;9.95;;;4.00;99.90;;;;;;5052892;28;20217;-82
2022/01/28 08:22:09;;;;;;;11.38;9.88;;;4.00;99.90;;;;;;5043563;28;20253;-82
2022/01/28 08:24:36;;;;;;;10.60;9.30;;;4.00;99.90;;;;;;5041696;28;20236;-82
2022/01/28 08:27:06;;;;;;;11.02;9.45;;;4.10;99.90;;;;;;5039541;28;20248;-82
2022/01/28 08:29:33;;;;;;;9.20;8.18;;;4.10;99.90;;;;;;5040585;28;20200;-83
2022/01/28 08:32:00;;;;;;;11.25;9.43;;;4.10;99.90;;;;;;5053527;28;20220;-83
2022/01/28 08:34:27;;;;;;;11.75;9.30;;;4.30;99.90;;;;;;5036798;28;20228;-83
2022/01/28 08:36:54;;;;;;;11.10;8.70;;;4.40;99.90;;;;;;5044872;28;20204;-83
2022/01/28 08:39:22;;;;;;;12.00;8.80;;;4.40;99.90;;;;;;5046289;28;20204;-83
2022/01/28 08:41:49;;;;;;;10.25;8.90;;;4.30;99.90;;;;;;5035544;28;20240;-82
2022/01/28 08:44:18;;;;;;;12.65;9.25;;;4.30;99.90;;;;;;5039452;28;21210;-85
2022/01/28 08:46:45;;;;;;;10.95;8.98;;;4.30;99.90;;;;;;5034357;28;20228;-84
2022/01/28 08:49:12;;;;;;;11.13;9.00;;;4.30;99.90;;;;;;5043531;28;20211;-72
2022/01/28 08:51:39;;;;;;;12.20;8.52;;;4.30;99.90;;;;;;5033380;28;20199;-72
2022/01/28 08:54:06;;;;;;;10.07;8.48;;;4.40;99.90;;;;;;5042078;28;20205;-72
2022/01/28 08:56:33;;;;;;;10.48;8.60;;;4.40;99.90;;;;;;5037141;28;20201;-73
2022/01/28 08:59:00;;;;;;;10.27;8.70;;;4.40;99.90;;;;;;5036501;28;20295;-86
2022/01/28 09:01:30;;;;;;;10.45;8.23;;;4.40;99.90;;;;;;5045704;28;20323;-69
2022/01/28 09:03:57;;;;;;;12.20;8.30;;;4.40;99.90;;;;;;5030988;28;20208;-70
2022/01/28 09:06:24;;;;;;;10.02;7.57;;;4.50;99.90;;;;;;5045015;28;20196;-70
2022/01/28 09:08:54;;;;;;;9.10;8.20;;;4.50;99.90;;;;;;5039727;28;20266;-70
2022/01/28 09:11:34;;;;;;;9.35;7.40;;;4.60;99.90;;;;;;5041863;28;20202;-70
2022/01/28 09:14:01;;;;;;;8.80;7.90;;;4.70;99.90;;;;;;5034145;28;20188;-70
2022/01/28 09:16:29;;;;;;;9.05;7.32;;;4.80;99.90;;;;;;5042812;28;20205;-70
2022/01/28 09:18:57;;;;;;;11.15;7.57;;;4.90;99.90;;;;;;5031901;28;20659;-70
2022/01/28 09:21:24;;;;;;;8.48;7.22;;;5.50;99.90;;;;;;5043105;28;20212;-70
2022/01/28 09:23:50;;;;;;;8.65;5.72;;;6.30;99.90;;;;;;5039090;28;20201;-70
2022/01/28 09:26:18;;;;;;;7.75;6.20;;;6.90;99.90;;;;;;5037152;28;20197;-71
2022/01/28 09:28:45;;;;;;;7.53;5.93;;;7.10;99.90;;;;;;5033090;28;20205;-70
2022/01/28 09:31:12;;;;;;;9.77;6.53;;;7.70;99.90;;;;;;5037083;28;20198;-70
2022/01/28 09:33:40;;;;;;;8.00;5.47;;;7.80;99.90;;;;;;5034337;28;20304;-70
2022/01/28 09:36:08;;;;;;;6.20;4.80;;;7.80;99.90;;;;;;5033172;28;20680;-70
2022/01/28 09:38:36;;;;;;;10.55;6.00;;;8.30;99.90;;;;;;5035904;28;20197;-70
2022/01/28 09:41:04;;;;;;;7.20;4.80;;;8.10;99.90;;;;;;5040133;28;20284;-70
2022/01/28 09:43:31;;;;;;;8.07;5.25;;;8.00;99.90;;;;;;5039173;28;20217;-71
2022/01/28 09:45:59;;;;;;;8.60;5.80;;;8.50;99.90;;;;;;5034872;28;20194;-73
2022/01/28 09:48:26;;;;;;;5.95;5.20;;;9.00;99.90;;;;;;5031206;28;20292;-70
2022/01/28 09:50:58;;;;;;;6.90;5.53;;;9.40;99.90;;;;;;5032024;28;20203;-71
2022/01/28 09:53:25;;;;;;;8.57;6.00;;;9.80;99.90;;;;;;5040707;28;20616;-71
2022/01/28 09:55:52;;;;;;;7.90;5.90;;;9.40;99.90;;;;;;5034884;28;20560;-71
2022/01/28 09:58:20;;;;;;;7.65;5.40;;;9.10;99.90;;;;;;5036098;28;20191;-71
2022/01/28 10:00:47;;;;;;;9.10;6.45;;;8.50;99.90;;;;;;5026771;28;20228;-69
2022/01/28 10:03:16;;;;;;;7.43;6.22;;;7.90;99.90;;;;;;5030689;28;20727;-70
2022/01/28 10:05:44;;;;;;;8.70;5.95;;;7.50;99.90;;;;;;5036532;28;20198;-71
2022/01/28 10:08:15;;;;;;;9.75;6.55;;;7.10;99.90;;;;;;5036291;28;20201;-71
2022/01/28 10:10:48;;;;;;;8.40;6.30;;;6.80;99.90;;;;;;5036699;28;20212;-70
2022/01/28 10:13:19;;;;;;;12.40;7.00;;;6.60;99.90;;;;;;5037722;28;20719;-70
2022/01/28 10:16:08;;;;;;;8.00;6.57;;;6.30;99.90;;;;;;5044277;28;20288;-71
2022/01/28 10:18:46;;;;;;;8.35;5.80;;;6.20;99.90;;;;;;5041121;28;20194;-70
2022/01/28 10:21:19;;;;;;;8.63;6.10;;;7.10;99.90;;;;;;5036343;28;20193;-71
2022/01/28 10:23:58;;;;;;;7.35;5.40;;;8.20;99.90;;;;;;5034155;28;20531;-70
2022/01/28 10:26:30;;;;;;;6.65;5.80;;;8.50;99.90;;;;;;5043025;28;20192;-70
2022/01/28 10:28:58;;;;;;;9.90;6.32;;;8.40;99.90;;;;;;5044358;28;20200;-70
2022/01/28 10:31:38;;;;;;;9.00;5.32;;;8.30;99.90;;;;;;5045010;28;20190;-71
2022/01/28 10:34:17;;;;;;;8.18;5.70;;;8.60;99.90;;;;;;5039404;28;20201;-71
2022/01/28 10:36:46;;;;;;;8.52;5.38;;;9.00;99.90;;;;;;5041673;28;20632;-71
2022/01/28 10:39:18;;;;;;;8.63;5.53;;;9.40;99.90;;;;;;5040365;28;20283;-69
2022/01/28 10:41:53;;;;;;;7.10;4.82;;;10.20;99.90;;;;;;5044743;28;20256;-70
2022/01/28 10:44:20;;;;;;;6.20;4.72;;;11.30;99.90;;;;;;5040204;28;20557;-77
2022/01/28 10:46:57;;;;;;;7.55;4.80;;;12.10;99.90;;;;;;5048821;28;20299;-72
2022/01/28 10:49:32;;;;;;;6.40;4.63;;;12.40;99.90;;;;;;5047903;28;20572;-72
2022/01/28 10:52:07;;;;;;;5.47;4.53;;;12.40;99.90;;;;;;5034059;28;20217;-88
2022/01/28 10:54:37;;;;;;;6.20;4.63;;;12.50;99.90;;;;;;5039360;28;20333;-72
2022/01/28 10:57:06;;;;;;;7.28;4.20;;;12.00;99.90;;;;;;5051308;28;20545;-73
2022/01/28 10:59:35;;;;;;;8.20;5.60;;;11.40;99.90;;;;;;5049967;28;20719;-73
2022/01/28 11:02:03;;;;;;;5.68;5.18;;;10.50;99.90;;;;;;5039453;28;20227;-89
2022/01/28 11:04:30;;;;;;;6.63;4.75;;;9.60;99.90;;;;;;5046214;28;20201;-73
2022/01/28 11:06:59;;;;;;;5.28;4.78;;;9.00;99.90;;;;;;5035751;28;20317;-73
2022/01/28 11:09:27;;;;;;;8.43;4.93;;;8.40;99.90;;;;;;5040402;28;20220;-71
2022/01/28 11:11:55;;;;;;;7.45;4.65;;;7.80;99.90;;;;;;5035596;28;20309;-72
2022/01/28 11:14:22;;;;;;;8.52;4.63;;;7.40;99.90;;;;;;5047678;28;20225;-73
2022/01/28 11:16:50;;;;;;;7.15;5.40;;;7.40;99.90;;;;;;5041307;28;20682;-72
2022/01/28 11:19:20;;;;;;;9.05;5.32;;;7.30;99.90;;;;;;5042230;28;20198;-72
2022/01/28 11:22:08;;;;;;;6.10;4.72;;;7.30;99.90;;;;;;5036186;28;20235;-72
2022/01/28 11:25:05;;;;;;;6.68;4.93;;;7.10;99.90;;;;;;5037516;28;20211;-73
2022/01/28 11:27:36;;;;;;;5.78;4.25;;;7.10;99.90;;;;;;5042525;28;20194;-72
2022/01/28 11:30:22;;;;;;;7.50;4.85;;;7.70;99.90;;;;;;5038914;28;20280;-72
2022/01/28 11:33:00;;;;;;;8.85;5.43;;;8.10;99.90;;;;;;5042402;28;20220;-72
2022/01/28 11:35:30;;;;;;;6.53;5.45;;;8.10;99.90;;;;;;5040866;28;21973;-72
2022/01/28 11:38:03;;;;;;;9.40;4.80;;;8.00;99.90;;;;;;5040271;28;20185;-73
2022/01/28 11:40:43;;;;;;;8.98;5.32;;;7.80;99.90;;;;;;5036319;28;20224;-73
2022/01/28 11:43:20;;;;;;;9.68;4.72;;;7.40;99.90;;;;;;5045561;28;20251;-73
2022/01/28 11:45:48;;;;;;;7.45;5.70;;;7.10;99.90;;;;;;5037248;28;20192;-73
2022/01/28 11:48:15;;;;;;;10.20;5.00;;;6.70;99.90;;;;;;5044069;28;20794;-73
2022/01/28 11:50:51;;;;;;;6.93;5.30;;;6.60;99.90;;;;;;5042295;28;20768;-72
2022/01/28 11:53:24;;;;;;;7.07;5.32;;;6.60;99.90;;;;;;5038906;28;20217;-72
2022/01/28 11:56:02;;;;;;;7.88;5.78;;;6.70;99.90;;;;;;5041546;28;20552;-72
2022/01/28 11:58:54;;;;;;;8.15;5.70;;;6.80;99.90;;;;;;5044595;28;20242;-71
2022/01/28 12:01:25;;;;;;;7.88;5.15;;;7.20;99.90;;;;;;5042138;28;20273;-71
2022/01/28 12:04:13;;;;;;;5.65;4.85;;;7.90;99.90;;;;;;5039862;28;20205;-72
2022/01/28 12:06:42;;;;;;;6.30;5.03;;;8.20;99.90;;;;;;5039791;28;20678;-72
2022/01/28 12:09:10;;;;;;;7.57;5.30;;;8.10;99.90;;;;;;5037493;28;20194;-71
2022/01/28 12:11:43;;;;;;;10.27;4.82;;;7.70;99.90;;;;;;5048601;28;20306;-72
2022/01/28 12:14:13;;;;;;;6.53;4.50;;;7.50;99.90;;;;;;5035783;28;20288;-72
2022/01/28 12:16:43;;;;;;;8.07;4.95;;;7.60;99.90;;;;;;5042628;28;20232;-72
2022/01/28 12:19:16;;;;;;;11.43;7.63;;;7.80;99.90;;;;;;5040941;28;20201;-72
2022/01/28 12:22:04;;;;;;;6.07;4.10;;;8.40;99.90;;;;;;5039488;28;20281;-72
2022/01/28 12:24:33;;;;;;;5.28;4.13;;;8.80;99.90;;;;;;5048058;28;20202;-72
2022/01/28 12:27:01;;;;;;;5.15;4.05;;;8.70;99.90;;;;;;5041064;28;20201;-72
2022/01/28 12:29:29;;;;;;;6.45;3.97;;;8.20;99.90;;;;;;5041825;28;20205;-72
2022/01/28 12:31:58;;;;;;;5.28;4.07;;;7.80;99.90;;;;;;5042108;28;20304;-72
2022/01/28 12:34:26;;;;;;;5.95;4.15;;;7.50;99.90;;;;;;5045119;28;20280;-72
2022/01/28 12:36:57;;;;;;;7.68;4.25;;;7.30;99.90;;;;;;5045922;28;20224;-72
2022/01/28 12:39:35;;;;;;;6.75;4.20;;;7.10;99.90;;;;;;5041654;28;20288;-72
2022/01/28 12:42:07;;;;;;;8.60;4.18;;;6.90;99.90;;;;;;5044976;28;20227;-72
2022/01/28 12:44:35;;;;;;;6.53;5.00;;;6.90;99.90;;;;;;5050134;28;20680;-72
2022/01/28 12:47:05;;;;;;;8.23;5.55;;;7.00;99.90;;;;;;5040990;28;20205;-73
2022/01/28 12:49:34;;;;;;;6.35;4.97;;;7.00;99.90;;;;;;5041483;28;20207;-73
2022/01/28 12:52:05;;;;;;;8.38;5.60;;;6.80;99.90;;;;;;5034437;28;20640;-72
2022/01/28 12:54:41;;;;;;;8.05;5.80;;;6.60;99.90;;;;;;5038163;28;20994;-72
2022/01/28 12:57:10;;;;;;;7.20;5.88;;;6.50;99.90;;;;;;5035506;28;20242;-73
2022/01/28 12:59:38;;;;;;;9.52;5.20;;;6.80;99.90;;;;;;5043008;28;20847;-73
2022/01/28 13:02:06;;;;;;;7.05;6.20;;;7.10;99.90;;;;;;5035419;28;20304;-73
2022/01/28 13:04:52;;;;;;;8.10;5.97;;;7.20;99.90;;;;;;5050253;28;20276;-73
2022/01/28 13:10:07;;;;;;;11.23;7.05;;;7.30;99.90;;;;;;5052636;28;20205;-73
2022/01/28 13:12:34;;;;;;;9.70;7.20;;;7.20;99.90;;;;;;5050251;28;20221;-73
2022/01/28 13:15:09;;;;;;;7.97;6.40;;;7.10;99.90;;;;;;5050667;28;20236;-74
2022/01/28 13:17:37;;;;;;;10.70;7.53;;;7.20;99.90;;;;;;5043767;28;20247;-74
2022/01/28 13:20:09;;;;;;;8.73;7.35;;;7.20;99.90;;;;;;5041370;28;20198;-73
2022/01/28 13:22:40;;;;;;;9.20;7.53;;;7.00;99.90;;;;;;5042551;28;20224;-73
2022/01/28 13:25:17;;;;;;;8.68;6.72;;;7.00;99.90;;;;;;5049329;28;20197;-74
2022/01/28 13:27:46;;;;;;;7.65;6.65;;;6.80;99.90;;;;;;5039413;28;20197;-73
2022/01/28 13:30:15;;;;;;;9.13;7.18;;;6.70;99.90;;;;;;5052833;28;20192;-72
2022/01/28 13:32:45;;;;;;;9.45;8.00;;;6.50;99.90;;;;;;5051714;28;20231;-72
2022/01/28 13:35:15;;;;;;;9.90;7.28;;;6.20;99.90;;;;;;5048015;28;20648;-72
2022/01/28 13:37:45;;;;;;;8.57;6.97;;;6.20;99.90;;;;;;5045115;28;20660;-73
2022/01/28 13:40:13;;;;;;;8.70;7.20;;;6.50;99.90;;;;;;5043143;28;20280;-72
2022/01/28 13:42:58;;;;;;;7.72;6.93;;;6.80;99.90;;;;;;5035248;28;20684;-72
2022/01/28 13:45:34;;;;;;;9.18;6.90;;;7.20;99.90;;;;;;5042334;28;20672;-72
2022/01/28 13:48:02;;;;;;;10.75;7.68;;;7.60;99.90;;;;;;5044782;28;20564;-72